createdAt,value
2024-02-19T00:00:32.410Z,96948.00
2024-02-19T00:01:34.011Z,96953.00
2024-02-19T00:02:35.597Z,96959.84
2024-02-19T00:03:37.135Z,96966.00
2024-02-19T00:04:38.752Z,96957.50
2024-02-19T00:05:40.401Z,96962.50
2024-02-19T00:06:41.912Z,96960.38
2024-02-19T00:07:43.588Z,96961.53
2024-02-19T00:08:45.080Z,96964.19
2024-02-19T00:09:46.592Z,96961.53
2024-02-19T00:10:48.742Z,96952.94
2024-02-19T00:11:50.360Z,96965.16
2024-02-19T00:12:52.367Z,96954.53
2024-02-19T00:13:53.823Z,96953.56
2024-02-19T00:14:55.797Z,96955.66
2024-02-19T00:15:57.311Z,96952.34
2024-02-19T00:16:59.003Z,96949.38
2024-02-19T00:18:00.622Z,96958.78
2024-02-19T00:19:02.264Z,96963.94
2024-02-19T00:20:04.152Z,96963.56
2024-02-19T00:21:05.762Z,96969.25
2024-02-19T00:22:09.452Z,96958.47
2024-02-19T00:23:11.001Z,96970.25
2024-02-19T00:24:12.495Z,96958.47
2024-02-19T00:25:14.006Z,96961.44
2024-02-19T00:26:15.534Z,96970.63
2024-02-19T00:27:18.439Z,96972.16
2024-02-19T00:28:20.208Z,96972.81
2024-02-19T00:29:21.806Z,96977.31
2024-02-19T00:30:23.281Z,96981.25
2024-02-19T00:31:26.369Z,96970.16
2024-02-19T00:32:28.166Z,96975.63
2024-02-19T00:33:29.771Z,96976.63
2024-02-19T00:34:31.342Z,96970.69
2024-02-19T00:35:33.990Z,96976.00
2024-02-19T00:36:35.513Z,96977.00
2024-02-19T00:37:38.564Z,96972.81
2024-02-19T00:38:40.301Z,96978.13
2024-02-19T00:39:41.967Z,96973.13
2024-02-19T00:40:43.559Z,96975.78
2024-02-19T00:41:45.046Z,96974.66
2024-02-19T00:42:46.735Z,96981.31
2024-02-19T00:43:48.302Z,96977.84
2024-02-19T00:44:50.015Z,96978.50
2024-02-19T00:45:52.735Z,96984.81
2024-02-19T00:46:54.300Z,96972.38
2024-02-19T00:47:55.833Z,96973.66
2024-02-19T00:48:57.390Z,96974.34
2024-02-19T00:49:59.104Z,96979.28
2024-02-19T00:51:04.200Z,96971.53
2024-02-19T00:52:05.955Z,96970.03
2024-02-19T00:53:07.431Z,96980.78
2024-02-19T00:54:09.023Z,96978.28
2024-02-19T00:55:10.962Z,96971.00
2024-02-19T00:56:12.573Z,96966.38
2024-02-19T00:57:14.076Z,96975.03
2024-02-19T00:58:15.656Z,96968.50
2024-02-19T00:59:17.427Z,96978.66
2024-02-19T01:00:19.039Z,96972.53
2024-02-19T01:01:20.728Z,96974.34
2024-02-19T01:02:22.293Z,96967.22
2024-02-19T01:03:23.818Z,96970.16
2024-02-19T01:04:25.647Z,96967.97
2024-02-19T01:05:27.203Z,96972.00
2024-02-19T01:06:29.096Z,96972.00
2024-02-19T01:07:31.358Z,96970.84
2024-02-19T01:08:33.000Z,96979.66
2024-02-19T01:09:34.983Z,96975.72
2024-02-19T01:10:36.471Z,96973.94
2024-02-19T01:11:37.936Z,96970.69
2024-02-19T01:12:39.450Z,96966.91
2024-02-19T01:13:41.125Z,96972.09
2024-02-19T01:14:43.019Z,96975.72
2024-02-19T01:15:44.532Z,96979.66
2024-02-19T01:16:47.720Z,96975.47
2024-02-19T01:17:49.895Z,96970.53
2024-02-19T01:18:53.052Z,96968.19
2024-02-19T01:19:54.842Z,96964.84
2024-02-19T01:20:57.096Z,96960.53
2024-02-19T01:21:58.819Z,96962.19
2024-02-19T01:23:00.570Z,96973.13
2024-02-19T01:24:02.094Z,96972.81
2024-02-19T01:25:03.982Z,96972.97
2024-02-19T01:26:05.489Z,96969.41
2024-02-19T01:27:07.657Z,96978.59
2024-02-19T01:28:09.246Z,96977.06
2024-02-19T01:29:10.747Z,96978.91
2024-02-19T01:30:12.741Z,96979.88
2024-02-19T01:31:14.414Z,96983.38
2024-02-19T01:32:16.180Z,96978.22
2024-02-19T01:33:17.905Z,96976.91
2024-02-19T01:34:19.941Z,96979.72
2024-02-19T01:35:23.388Z,96984.38
2024-02-19T01:36:25.194Z,96986.34
2024-02-19T01:37:26.673Z,96983.69
2024-02-19T01:38:28.195Z,96984.81
2024-02-19T01:39:29.649Z,96989.16
2024-02-19T01:40:31.364Z,96989.84
2024-02-19T01:41:33.091Z,96986.88
2024-02-19T01:42:34.648Z,96985.59
2024-02-19T01:43:37.595Z,96980.28
2024-02-19T01:44:39.058Z,96990.03
2024-02-19T01:45:40.633Z,96989.38
2024-02-19T01:46:43.702Z,96992.56
2024-02-19T01:47:45.235Z,96987.38
2024-02-19T01:48:46.799Z,96987.38
2024-02-19T01:49:48.449Z,96986.41
2024-02-19T01:50:50.548Z,96986.09
2024-02-19T01:51:53.102Z,96986.94
2024-02-19T01:52:55.605Z,96989.75
2024-02-19T01:53:57.963Z,96984.28
2024-02-19T01:54:59.822Z,96992.69
2024-02-19T01:56:01.447Z,96992.56
2024-02-19T01:57:02.984Z,96987.09
2024-02-19T01:58:06.198Z,96984.97
2024-02-19T01:59:15.579Z,96989.16
2024-02-19T02:00:18.566Z,96979.81
2024-02-19T02:01:20.445Z,96990.91
2024-02-19T02:02:23.426Z,96985.28
2024-02-19T02:03:25.876Z,96989.22
2024-02-19T02:04:28.040Z,96992.84
2024-02-19T02:05:29.639Z,96990.50
2024-02-19T02:06:31.242Z,96990.91
2024-02-19T02:07:33.082Z,96987.63
2024-02-19T02:08:40.334Z,96991.28
2024-02-19T02:09:42.184Z,96985.50
2024-02-19T02:10:43.745Z,96985.38
2024-02-19T02:11:45.314Z,96989.28
2024-02-19T02:12:46.884Z,96985.97
2024-02-19T02:13:48.355Z,96987.63
2024-02-19T02:14:49.852Z,96987.94
2024-02-19T02:15:51.351Z,96988.16
2024-02-19T02:16:52.825Z,96988.44
2024-02-19T02:17:54.565Z,96990.28
2024-02-19T02:18:56.759Z,96985.06
2024-02-19T02:19:58.526Z,96978.50
2024-02-19T02:21:00.257Z,96979.91
2024-02-19T02:22:02.035Z,96978.63
2024-02-19T02:23:04.698Z,96979.44
2024-02-19T02:24:06.319Z,96979.59
2024-02-19T02:25:08.045Z,96979.34
2024-02-19T02:26:09.617Z,96986.91
2024-02-19T02:27:11.509Z,96981.13
2024-02-19T02:28:13.086Z,96985.28
2024-02-19T02:29:14.661Z,96980.28
2024-02-19T02:30:16.187Z,96982.78
2024-02-19T02:31:17.753Z,96982.09
2024-02-19T02:32:19.685Z,96982.25
2024-02-19T02:33:21.324Z,96979.75
2024-02-19T02:34:23.647Z,96988.56
2024-02-19T02:35:25.904Z,96982.00
2024-02-19T02:36:27.377Z,96979.09
2024-02-19T02:37:28.843Z,96982.78
2024-02-19T02:38:30.392Z,96977.25
2024-02-19T02:39:32.682Z,96973.78
2024-02-19T02:40:34.259Z,96971.13
2024-02-19T02:41:35.846Z,96978.38
2024-02-19T02:42:37.331Z,96969.97
2024-02-19T02:43:38.896Z,96973.78
2024-02-19T02:44:40.404Z,96973.16
2024-02-19T02:45:41.917Z,96966.63
2024-02-19T02:46:43.486Z,96973.78
2024-02-19T02:47:44.989Z,96980.19
2024-02-19T02:48:46.700Z,96978.50
2024-02-19T02:49:48.257Z,96982.72
2024-02-19T02:50:49.737Z,96992.06
2024-02-19T02:51:51.257Z,96989.09
2024-02-19T02:52:52.736Z,96986.03
2024-02-19T02:53:54.233Z,96988.44
2024-02-19T02:54:55.745Z,96987.28
2024-02-19T02:55:57.511Z,96989.78
2024-02-19T02:56:59.304Z,96992.38
2024-02-19T02:58:00.745Z,96985.50
2024-02-19T02:59:02.248Z,96992.72
2024-02-19T03:00:05.594Z,96993.03
2024-02-19T03:01:07.465Z,96986.50
2024-02-19T03:02:09.356Z,96987.31
2024-02-19T03:03:11.146Z,96989.72
2024-02-19T03:04:12.791Z,96990.28
2024-02-19T03:05:14.332Z,96981.63
2024-02-19T03:06:15.777Z,96980.50
2024-02-19T03:07:17.357Z,96979.34
2024-02-19T03:08:19.585Z,96987.47
2024-02-19T03:09:21.038Z,96983.53
2024-02-19T03:10:22.614Z,96983.31
2024-02-19T03:11:24.308Z,96990.69
2024-02-19T03:12:25.870Z,96982.25
2024-02-19T03:13:27.395Z,96981.44
2024-02-19T03:14:28.850Z,96982.25
2024-02-19T03:15:30.313Z,96979.91
2024-02-19T03:16:31.783Z,96983.25
2024-02-19T03:17:33.253Z,96979.09
2024-02-19T03:18:38.489Z,96981.75
2024-02-19T03:19:42.652Z,96978.78
2024-02-19T03:20:44.224Z,96977.41
2024-02-19T03:21:45.824Z,96982.63
2024-02-19T03:22:47.373Z,96979.13
2024-02-19T03:23:52.729Z,96971.53
2024-02-19T03:24:54.536Z,96970.16
2024-02-19T03:25:56.038Z,96978.81
2024-02-19T03:26:59.657Z,96973.28
2024-02-19T03:28:02.258Z,96973.13
2024-02-19T03:29:10.517Z,96977.94
2024-02-19T03:30:13.318Z,96979.56
2024-02-19T03:31:14.926Z,96981.25
2024-02-19T03:32:16.813Z,96981.09
2024-02-19T03:33:18.426Z,96979.13
2024-02-19T03:34:20.038Z,96985.13
2024-02-19T03:35:21.544Z,96980.19
2024-02-19T03:36:23.111Z,96979.97
2024-02-19T03:37:24.698Z,96982.16
2024-02-19T03:38:26.259Z,96981.03
2024-02-19T03:39:27.909Z,96982.63
2024-02-19T03:40:29.398Z,96988.84
2024-02-19T03:41:30.904Z,96989.72
2024-02-19T03:42:32.371Z,96982.84
2024-02-19T03:43:37.223Z,96982.47
2024-02-19T03:44:38.934Z,96985.50
2024-02-19T03:45:40.420Z,96977.00
2024-02-19T03:46:42.233Z,96976.84
2024-02-19T03:47:44.034Z,96983.69
2024-02-19T03:48:45.569Z,96983.69
2024-02-19T03:49:47.166Z,96978.22
2024-02-19T03:50:48.723Z,96976.84
2024-02-19T03:51:50.203Z,96974.34
2024-02-19T03:52:52.236Z,96983.81
2024-02-19T03:53:54.010Z,96976.69
2024-02-19T03:54:55.716Z,96983.81
2024-02-19T03:55:57.647Z,96984.97
2024-02-19T03:56:59.289Z,96987.63
2024-02-19T03:58:00.888Z,96985.13
2024-02-19T03:59:02.549Z,96995.44
2024-02-19T04:00:05.287Z,96995.75
2024-02-19T04:01:08.553Z,96992.09
2024-02-19T04:02:10.548Z,96995.03
2024-02-19T04:03:12.044Z,96994.72
2024-02-19T04:04:16.115Z,97003.25
2024-02-19T04:05:17.657Z,96999.25
2024-02-19T04:06:19.189Z,97004.09
2024-02-19T04:07:20.697Z,97003.56
2024-02-19T04:08:22.241Z,96997.94
2024-02-19T04:09:23.660Z,97002.53
2024-02-19T04:10:25.267Z,96995.28
2024-02-19T04:11:27.279Z,96999.94
2024-02-19T04:12:28.731Z,96997.53
2024-02-19T04:13:30.189Z,97000.34
2024-02-19T04:14:31.712Z,97004.41
2024-02-19T04:15:33.222Z,97005.41
2024-02-19T04:16:34.654Z,97004.41
2024-02-19T04:17:36.313Z,97001.72
2024-02-19T04:18:38.101Z,97008.81
2024-02-19T04:19:39.737Z,97003.34
2024-02-19T04:20:41.441Z,97010.81
2024-02-19T04:21:45.328Z,97007.53
2024-02-19T04:22:47.556Z,97008.66
2024-02-19T04:23:49.088Z,97008.00
2024-02-19T04:24:50.661Z,97008.31
2024-02-19T04:25:52.176Z,97007.19
2024-02-19T04:26:53.594Z,97009.13
2024-02-19T04:27:55.077Z,97003.50
2024-02-19T04:28:57.412Z,97013.97
2024-02-19T04:29:58.878Z,97015.16
2024-02-19T04:31:00.387Z,97010.34
2024-02-19T04:32:01.856Z,97012.69
2024-02-19T04:33:03.549Z,97009.22
2024-02-19T04:34:07.211Z,97007.69
2024-02-19T04:35:09.153Z,97010.34
2024-02-19T04:36:10.772Z,97003.66
2024-02-19T04:37:12.334Z,97011.63
2024-02-19T04:38:13.923Z,97011.13
2024-02-19T04:39:15.398Z,97017.19
2024-02-19T04:40:16.922Z,97011.41
2024-02-19T04:41:18.513Z,97011.31
2024-02-19T04:42:19.978Z,97006.56
2024-02-19T04:43:21.532Z,97017.56
2024-02-19T04:44:23.009Z,97008.91
2024-02-19T04:45:24.465Z,97017.03
2024-02-19T04:46:26.090Z,97010.41
2024-02-19T04:47:27.552Z,97017.03
2024-02-19T04:48:29.418Z,97014.38
2024-02-19T04:49:30.916Z,97015.50
2024-02-19T04:50:32.424Z,97017.56
2024-02-19T04:51:33.879Z,97017.88
2024-02-19T04:52:35.358Z,97019.25
2024-02-19T04:53:36.928Z,97009.38
2024-02-19T04:54:38.721Z,97018.53
2024-02-19T04:55:40.287Z,97019.84
2024-02-19T04:56:42.061Z,97012.19
2024-02-19T04:57:44.034Z,97015.81
2024-02-19T04:58:45.559Z,97014.59
2024-02-19T04:59:47.008Z,97011.78
2024-02-19T05:00:48.611Z,97013.84
2024-02-19T05:01:51.991Z,97018.31
2024-02-19T05:02:53.639Z,97019.44
2024-02-19T05:03:55.856Z,97018.09
2024-02-19T05:04:57.549Z,97019.91
2024-02-19T05:05:59.125Z,97013.78
2024-02-19T05:07:00.718Z,97017.25
2024-02-19T05:08:04.235Z,97019.91
2024-02-19T05:09:05.728Z,97018.53
2024-02-19T05:10:08.213Z,97015.03
2024-02-19T05:11:09.923Z,97022.94
2024-02-19T05:12:11.414Z,97020.03
2024-02-19T05:13:12.921Z,97013.75
2024-02-19T05:14:14.699Z,97020.03
2024-02-19T05:15:16.233Z,97020.03
2024-02-19T05:16:18.129Z,97016.41
2024-02-19T05:17:19.697Z,97020.34
2024-02-19T05:18:21.196Z,97022.00
2024-02-19T05:19:23.254Z,97019.50
2024-02-19T05:20:25.151Z,97022.31
2024-02-19T05:21:27.496Z,97020.63
2024-02-19T05:22:29.065Z,97020.78
2024-02-19T05:23:31.926Z,97029.72
2024-02-19T05:24:33.459Z,97030.72
2024-02-19T05:25:35.935Z,97029.19
2024-02-19T05:26:37.383Z,97036.31
2024-02-19T05:27:38.976Z,97032.53
2024-02-19T05:28:40.735Z,97032.53
2024-02-19T05:29:42.475Z,97034.75
2024-02-19T05:30:44.279Z,97032.84
2024-02-19T05:31:45.912Z,97033.22
2024-02-19T05:32:47.349Z,97027.63
2024-02-19T05:33:48.893Z,97032.34
2024-02-19T05:34:50.410Z,97030.13
2024-02-19T05:35:52.034Z,97031.63
2024-02-19T05:36:53.530Z,97029.28
2024-02-19T05:37:55.169Z,97032.25
2024-02-19T05:38:56.662Z,97036.56
2024-02-19T05:39:58.214Z,97029.28
2024-02-19T05:41:00.954Z,97034.06
2024-02-19T05:42:02.767Z,97036.03
2024-02-19T05:43:04.561Z,97031.78
2024-02-19T05:44:06.163Z,97039.22
2024-02-19T05:45:07.824Z,97036.56
2024-02-19T05:46:09.907Z,97033.16
2024-02-19T05:47:11.463Z,97037.34
2024-02-19T05:48:13.549Z,97040.16
2024-02-19T05:49:15.328Z,97037.34
2024-02-19T05:50:17.102Z,97035.56
2024-02-19T05:51:18.815Z,97039.06
2024-02-19T05:52:20.422Z,97033.06
2024-02-19T05:53:22.031Z,97038.38
2024-02-19T05:54:23.774Z,97039.81
2024-02-19T05:55:25.382Z,97043.47
2024-02-19T05:56:27.817Z,97040.50
2024-02-19T05:57:29.504Z,97044.97
2024-02-19T05:58:31.876Z,97042.31
2024-02-19T05:59:33.448Z,97041.03
2024-02-19T06:00:34.917Z,97043.00
2024-02-19T06:01:36.642Z,97044.16
2024-02-19T06:02:38.431Z,97035.72
2024-02-19T06:03:40.124Z,97036.03
2024-02-19T06:04:41.845Z,97038.38
2024-02-19T06:05:43.716Z,97040.22
2024-02-19T06:06:45.397Z,97052.78
2024-02-19T06:07:46.926Z,97050.53
2024-02-19T06:08:48.442Z,97047.19
2024-02-19T06:09:49.926Z,97049.69
2024-02-19T06:10:51.426Z,97040.22
2024-02-19T06:11:52.981Z,97048.63
2024-02-19T06:12:54.485Z,97043.59
2024-02-19T06:13:56.017Z,97055.59
2024-02-19T06:14:57.496Z,97051.56
2024-02-19T06:15:59.012Z,97045.88
2024-02-19T06:17:00.639Z,97044.88
2024-02-19T06:18:02.251Z,97047.41
2024-02-19T06:19:04.140Z,97046.03
2024-02-19T06:20:06.084Z,97048.09
2024-02-19T06:21:07.990Z,97053.09
2024-02-19T06:22:09.645Z,97050.88
2024-02-19T06:23:11.421Z,97051.13
2024-02-19T06:24:13.133Z,97047.94
2024-02-19T06:25:14.706Z,97052.78
2024-02-19T06:26:16.201Z,97046.66
2024-02-19T06:27:17.748Z,97061.75
2024-02-19T06:28:19.324Z,97053.78
2024-02-19T06:29:20.800Z,97062.75
2024-02-19T06:30:22.913Z,97056.06
2024-02-19T06:31:28.743Z,97062.09
2024-02-19T06:32:30.334Z,97058.00
2024-02-19T06:33:31.814Z,97065.47
2024-02-19T06:34:35.921Z,97062.19
2024-02-19T06:35:38.043Z,97059.69
2024-02-19T06:36:39.633Z,97065.47
2024-02-19T06:37:42.200Z,97066.94
2024-02-19T06:38:43.700Z,97066.59
2024-02-19T06:39:45.269Z,97076.91
2024-02-19T06:40:47.078Z,97076.50
2024-02-19T06:41:48.539Z,97076.34
2024-02-19T06:42:52.189Z,97072.31
2024-02-19T06:43:55.287Z,97078.63
2024-02-19T06:44:56.790Z,97084.78
2024-02-19T06:45:59.728Z,97089.78
2024-02-19T06:47:01.282Z,97081.66
2024-02-19T06:48:05.309Z,97088.66
2024-02-19T06:49:07.060Z,97093.66
2024-02-19T06:50:09.082Z,97089.72
2024-02-19T06:51:10.690Z,97093.13
2024-02-19T06:52:12.263Z,97093.50
2024-02-19T06:53:14.137Z,97092.00
2024-02-19T06:54:15.688Z,97089.47
2024-02-19T06:55:18.439Z,97095.63
2024-02-19T06:56:20.010Z,97099.97
2024-02-19T06:57:21.499Z,97100.81
2024-02-19T06:58:23.311Z,97096.16
2024-02-19T06:59:24.924Z,97098.81
2024-02-19T07:00:27.518Z,97096.63
2024-02-19T07:01:29.193Z,97097.31
2024-02-19T07:02:30.691Z,97101.63
2024-02-19T07:03:32.223Z,97098.25
2024-02-19T07:04:38.034Z,97104.38
2024-02-19T07:05:39.876Z,97110.81
2024-02-19T07:06:41.677Z,97102.03
2024-02-19T07:07:43.234Z,97107.50
2024-02-19T07:08:44.979Z,97105.97
2024-02-19T07:09:46.526Z,97111.28
2024-02-19T07:10:48.215Z,97117.13
2024-02-19T07:11:49.743Z,97121.28
2024-02-19T07:12:51.390Z,97125.09
2024-02-19T07:13:56.480Z,97127.44
2024-02-19T07:14:58.883Z,97129.56
2024-02-19T07:16:00.416Z,97120.75
2024-02-19T07:17:01.951Z,97136.25
2024-02-19T07:18:03.704Z,97129.97
2024-02-19T07:19:05.354Z,97140.56
2024-02-19T07:20:08.007Z,97140.44
2024-02-19T07:21:09.744Z,97142.22
2024-02-19T07:22:11.446Z,97137.97
2024-02-19T07:23:13.021Z,97151.31
2024-02-19T07:24:14.815Z,97141.22
2024-02-19T07:25:21.171Z,97148.50
2024-02-19T07:26:23.751Z,97151.88
2024-02-19T07:27:26.841Z,97153.13
2024-02-19T07:28:28.480Z,97155.22
2024-02-19T07:29:30.134Z,97159.00
2024-02-19T07:30:31.674Z,97156.75
2024-02-19T07:31:33.196Z,97157.06
2024-02-19T07:32:34.833Z,97164.03
2024-02-19T07:33:36.593Z,97155.03
2024-02-19T07:34:40.225Z,97158.44
2024-02-19T07:35:43.030Z,97163.06
2024-02-19T07:36:47.762Z,97163.50
2024-02-19T07:37:49.306Z,97162.75
2024-02-19T07:38:50.734Z,97160.66
2024-02-19T07:39:52.280Z,97155.63
2024-02-19T07:40:53.803Z,97162.06
2024-02-19T07:41:55.359Z,97162.91
2024-02-19T07:42:57.001Z,97164.44
2024-02-19T07:43:58.591Z,97153.50
2024-02-19T07:45:00.069Z,97162.19
2024-02-19T07:46:01.637Z,97165.97
2024-02-19T07:47:04.978Z,97163.59
2024-02-19T07:48:08.215Z,97160.94
2024-02-19T07:49:10.031Z,97157.16
2024-02-19T07:50:11.911Z,97165.03
2024-02-19T07:51:15.954Z,97164.28
2024-02-19T07:52:17.607Z,97157.69
2024-02-19T07:53:19.152Z,97160.03
2024-02-19T07:54:20.652Z,97169.16
2024-02-19T07:55:22.252Z,97165.97
2024-02-19T07:56:23.836Z,97169.03
2024-02-19T07:57:25.326Z,97176.44
2024-02-19T07:58:27.046Z,97170.44
2024-02-19T07:59:28.706Z,97166.38
2024-02-19T08:00:30.209Z,97173.09
2024-02-19T08:01:31.889Z,97168.22
2024-02-19T08:02:33.437Z,97169.06
2024-02-19T08:03:35.315Z,97173.09
2024-02-19T08:04:37.167Z,97166.88
2024-02-19T08:05:38.770Z,97167.00
2024-02-19T08:06:40.364Z,97178.03
2024-02-19T08:07:42.051Z,97174.56
2024-02-19T08:08:44.388Z,97186.13
2024-02-19T08:09:47.013Z,97192.72
2024-02-19T08:10:49.286Z,97184.94
2024-02-19T08:11:52.992Z,97184.47
2024-02-19T08:12:54.710Z,97185.16
2024-02-19T08:13:56.539Z,97187.66
2024-02-19T08:14:58.609Z,97190.72
2024-02-19T08:16:00.470Z,97187.66
2024-02-19T08:17:02.670Z,97184.47
2024-02-19T08:18:05.171Z,97193.13
2024-02-19T08:19:06.993Z,97187.53
2024-02-19T08:20:09.315Z,97196.88
2024-02-19T08:21:10.846Z,97180.22
2024-02-19T08:22:12.472Z,97189.03
2024-02-19T08:23:14.657Z,97194.44
2024-02-19T08:24:16.158Z,97200.44
2024-02-19T08:25:17.682Z,97190.09
2024-02-19T08:26:19.200Z,97190.19
2024-02-19T08:27:20.767Z,97198.16
2024-02-19T08:28:22.365Z,97202.66
2024-02-19T08:29:23.978Z,97202.28
2024-02-19T08:30:25.702Z,97202.13
2024-02-19T08:31:28.692Z,97204.03
2024-02-19T08:32:30.267Z,97200.28
2024-02-19T08:33:31.800Z,97201.91
2024-02-19T08:34:33.292Z,97194.16
2024-02-19T08:35:35.242Z,97211.47
2024-02-19T08:36:38.704Z,97204.03
2024-02-19T08:37:40.299Z,97206.69
2024-02-19T08:38:45.853Z,97210.03
2024-02-19T08:39:48.638Z,97218.88
2024-02-19T08:40:50.382Z,97217.25
2024-02-19T08:41:51.924Z,97220.75
2024-02-19T08:42:53.492Z,97220.38
2024-02-19T08:43:55.051Z,97226.47
2024-02-19T08:44:56.784Z,97221.13
2024-02-19T08:45:58.350Z,97230.09
2024-02-19T08:47:06.272Z,97229.44
2024-02-19T08:48:08.555Z,97231.41
2024-02-19T08:49:11.450Z,97226.84
2024-02-19T08:50:13.535Z,97228.06
2024-02-19T08:51:15.559Z,97232.16
2024-02-19T08:52:17.123Z,97230.97
2024-02-19T08:53:19.428Z,97231.63
2024-02-19T08:54:20.917Z,97230.81
2024-02-19T08:55:22.476Z,97235.09
2024-02-19T08:56:24.014Z,97236.41
2024-02-19T08:57:25.669Z,97238.72
2024-02-19T08:58:27.223Z,97240.06
2024-02-19T08:59:28.882Z,97240.97
2024-02-19T09:00:33.865Z,97240.44
2024-02-19T09:01:36.425Z,97244.38
2024-02-19T09:02:39.555Z,97240.66
2024-02-19T09:03:41.510Z,97248.94
2024-02-19T09:04:44.306Z,97249.19
2024-02-19T09:05:46.254Z,97244.03
2024-02-19T09:06:47.791Z,97245.31
2024-02-19T09:07:49.442Z,97241.38
2024-02-19T09:08:50.971Z,97242.81
2024-02-19T09:09:52.509Z,97241.53
2024-02-19T09:10:54.904Z,97248.81
2024-02-19T09:11:56.410Z,97246.97
2024-02-19T09:12:57.934Z,97244.03
2024-02-19T09:13:59.513Z,97245.66
2024-02-19T09:15:01.288Z,97243.63
2024-02-19T09:16:03.557Z,97240.28
2024-02-19T09:17:06.849Z,97243.78
2024-02-19T09:18:08.639Z,97246.38
2024-02-19T09:19:10.300Z,97247.59
2024-02-19T09:20:12.787Z,97247.91
2024-02-19T09:21:14.275Z,97250.94
2024-02-19T09:22:16.024Z,97250.63
2024-02-19T09:23:18.015Z,97243.16
2024-02-19T09:24:19.761Z,97241.72
2024-02-19T09:25:21.231Z,97250.72
2024-02-19T09:26:22.663Z,97241.59
2024-02-19T09:27:24.808Z,97244.69
2024-02-19T09:28:26.536Z,97244.59
2024-02-19T09:29:28.079Z,97245.63
2024-02-19T09:30:29.791Z,97240.75
2024-02-19T09:31:31.343Z,97238.22
2024-02-19T09:32:33.185Z,97239.00
2024-02-19T09:33:35.367Z,97233.53
2024-02-19T09:34:37.110Z,97238.22
2024-02-19T09:35:38.728Z,97238.91
2024-02-19T09:36:40.576Z,97241.41
2024-02-19T09:37:42.089Z,97237.22
2024-02-19T09:38:43.560Z,97239.34
2024-02-19T09:39:50.843Z,97242.88
2024-02-19T09:40:52.566Z,97243.47
2024-02-19T09:41:54.785Z,97240.59
2024-02-19T09:42:56.626Z,97238.69
2024-02-19T09:43:58.231Z,97243.69
2024-02-19T09:44:59.917Z,97247.13
2024-02-19T09:46:04.949Z,97242.66
2024-02-19T09:47:08.331Z,97242.41
2024-02-19T09:48:13.919Z,97249.03
2024-02-19T09:49:18.916Z,97247.13
2024-02-19T09:50:20.981Z,97241.28
2024-02-19T09:51:33.025Z,97249.03
2024-02-19T09:52:41.035Z,97252.41
2024-02-19T09:53:44.348Z,97252.50
2024-02-19T09:54:47.340Z,97249.03
2024-02-19T09:55:50.445Z,97258.69
2024-02-19T09:56:55.825Z,97256.38
2024-02-19T09:57:57.683Z,97254.94
2024-02-19T09:58:59.289Z,97260.22
2024-02-19T10:00:05.424Z,97263.22
2024-02-19T10:01:10.298Z,97261.03
2024-02-19T10:02:13.320Z,97263.44
2024-02-19T10:03:19.391Z,97266.13
2024-02-19T10:04:22.036Z,97270.38
2024-02-19T10:05:23.956Z,97263.38
2024-02-19T10:06:36.638Z,97263.03
2024-02-19T10:07:39.029Z,97266.03
2024-02-19T10:08:40.661Z,97268.19
2024-02-19T10:09:42.415Z,97270.38
2024-02-19T10:10:46.748Z,97272.34
2024-02-19T10:11:50.555Z,97273.59
2024-02-19T10:12:52.277Z,97272.72
2024-02-19T10:13:54.191Z,97278.38
2024-02-19T10:14:56.916Z,97282.56
2024-02-19T10:15:58.466Z,97278.53
2024-02-19T10:17:01.316Z,97280.34
2024-02-19T10:18:20.883Z,97280.56
2024-02-19T10:19:22.708Z,97277.56
2024-02-19T10:20:24.350Z,97277.75
2024-02-19T10:21:26.090Z,97294.88
2024-02-19T10:22:27.603Z,97280.72
2024-02-19T10:23:29.197Z,97283.44
2024-02-19T10:24:30.916Z,97278.28
2024-02-19T10:25:32.405Z,97283.00
2024-02-19T10:26:34.441Z,97289.81
2024-02-19T10:27:36.776Z,97288.19
2024-02-19T10:28:40.376Z,97286.44
2024-02-19T10:29:41.860Z,97291.44
2024-02-19T10:30:44.405Z,97282.63
2024-02-19T10:31:46.097Z,97290.16
2024-02-19T10:32:48.008Z,97289.31
2024-02-19T10:33:49.859Z,97289.75
2024-02-19T10:34:51.707Z,97284.91
2024-02-19T10:35:53.793Z,97284.25
2024-02-19T10:36:55.950Z,97292.41
2024-02-19T10:37:59.616Z,97294.19
2024-02-19T10:39:01.240Z,97283.44
2024-02-19T10:40:05.349Z,97296.69
2024-02-19T10:41:06.824Z,97298.06
2024-02-19T10:42:09.146Z,97297.41
2024-02-19T10:43:11.756Z,97296.75
2024-02-19T10:44:13.269Z,97289.63
2024-02-19T10:45:15.828Z,97301.13
2024-02-19T10:46:21.547Z,97299.06
2024-02-19T10:47:23.803Z,97299.88
2024-02-19T10:48:26.955Z,97293.19
2024-02-19T10:49:28.682Z,97290.75
2024-02-19T10:50:33.437Z,97293.91
2024-02-19T10:51:36.342Z,97292.09
2024-02-19T10:52:42.951Z,97298.19
2024-02-19T10:53:47.693Z,97297.09
2024-02-19T10:55:02.759Z,97300.66
2024-02-19T10:56:19.509Z,97293.22
2024-02-19T10:57:21.112Z,97297.63
2024-02-19T10:58:26.448Z,97296.84
2024-02-19T10:59:29.078Z,97294.25
2024-02-19T11:00:30.704Z,97291.59
2024-02-19T11:01:42.610Z,97285.81
2024-02-19T11:02:45.125Z,97286.09
2024-02-19T11:03:46.898Z,97285.56
2024-02-19T11:04:51.984Z,97282.91
2024-02-19T11:05:53.743Z,97280.53
2024-02-19T11:06:57.383Z,97278.69
2024-02-19T11:07:59.533Z,97276.84
2024-02-19T11:09:01.231Z,97281.78
2024-02-19T11:10:06.762Z,97286.78
2024-02-19T11:11:08.474Z,97277.28
2024-02-19T11:12:14.563Z,97279.56
2024-02-19T11:13:19.544Z,97277.91
2024-02-19T11:14:22.684Z,97277.78
2024-02-19T11:15:29.939Z,97276.13
2024-02-19T11:16:34.866Z,97268.22
2024-02-19T11:17:36.469Z,97275.09
2024-02-19T11:18:38.092Z,97273.47
2024-02-19T11:19:40.586Z,97270.03
2024-02-19T11:20:42.628Z,97266.56
2024-02-19T11:21:45.540Z,97266.50
2024-02-19T11:22:47.011Z,97261.59
2024-02-19T11:23:48.491Z,97262.63
2024-02-19T11:24:51.927Z,97264.47
2024-02-19T11:25:54.803Z,97261.66
2024-02-19T11:26:56.594Z,97260.06
2024-02-19T11:27:59.782Z,97264.72
2024-02-19T11:29:01.542Z,97264.59
2024-02-19T11:30:05.900Z,97265.66
2024-02-19T11:31:07.920Z,97259.78
2024-02-19T11:32:09.933Z,97258.22
2024-02-19T11:33:13.519Z,97252.41
2024-02-19T11:34:19.433Z,97253.38
2024-02-19T11:35:21.138Z,97254.78
2024-02-19T11:36:22.896Z,97250.72
2024-02-19T11:37:24.432Z,97247.19
2024-02-19T11:38:27.495Z,97244.53
2024-02-19T11:39:29.132Z,97238.50
2024-02-19T11:40:34.057Z,97243.88
2024-02-19T11:41:36.019Z,97239.63
2024-02-19T11:42:38.506Z,97237.09
2024-02-19T11:43:40.380Z,97242.31
2024-02-19T11:44:42.717Z,97242.34
2024-02-19T11:45:44.501Z,97231.38
2024-02-19T11:46:46.887Z,97231.63
2024-02-19T11:47:48.485Z,97225.97
2024-02-19T11:48:50.781Z,97231.31
2024-02-19T11:49:53.354Z,97234.81
2024-02-19T11:50:55.159Z,97229.25
2024-02-19T11:52:04.924Z,97225.44
2024-02-19T11:53:12.729Z,97231.78
2024-02-19T11:54:16.870Z,97217.97
2024-02-19T11:55:20.626Z,97224.19
2024-02-19T11:56:22.257Z,97219.16
2024-02-19T11:57:27.584Z,97226.84
2024-02-19T11:58:30.134Z,97226.16
2024-02-19T11:59:32.629Z,97216.97
2024-02-19T12:00:34.598Z,97218.47
2024-02-19T12:01:36.152Z,97216.00
2024-02-19T12:02:43.813Z,97213.00
2024-02-19T12:03:46.288Z,97214.13
2024-02-19T12:04:52.552Z,97209.13
2024-02-19T12:05:54.599Z,97206.63
2024-02-19T12:06:56.460Z,97205.44
2024-02-19T12:07:58.361Z,97204.72
2024-02-19T12:09:00.099Z,97203.13
2024-02-19T12:10:01.808Z,97201.28
2024-02-19T12:11:07.515Z,97203.97